Airfield :
LOGIN :

Register | Disclaimer

   EN    FR    IT 

 










Legend :    VFR   Marginal VFR   IFR   Intensive IFR   Very Intensive IFR
Visi :
Ceiling :
>= 8 km
>= 3000ft
5 to 8 km
1000 to 3000 ft
1500m to 5 km
500 to 1000 ft
800 to 1500m
200 to 500 ft
< 800m
< 200 ft
Symbols :   Thunderstorms  Fog  Heavy snow  Heavy precipitations  Wind > 20 kt
SIGMETs :     Misc.  Thunderstorms  Icing  Turbulence  Mountain Waves  Volcanic Ashes






- Airport Elevation : 86 ft


LERT - Rota Navy

CURRENT METAR :
  • 021100Z 18012KT 150V230 9999 FEW032 25/21 Q1016 NOSIG

EXPIRED METARs :
  • 021030Z 18012KT 9999 SCT032 25/21 Q1016 NOSIG
  • 021000Z 18010KT 140V220 9999 SCT030 25/21 Q1016 NOSIG
  • 020930Z 19007KT 150V230 9999 BKN028 25/21 Q1016 NOSIG
  • 020900Z 15008KT 090V200 9999 BKN026 26/21 Q1016 NOSIG
  • 020830Z 14008KT 090V170 9999 BKN026 26/21 Q1016 NOSIG
  • 012130Z 13009KT 090V160 CAVOK 25/18 Q1013 NOSIG

TAF TAF LERT
Valid from the 02 at 09:00 until the 03 at 09:00 UTC


020800Z 0209/0309 15014KT 9999 FEW025 TX29/0212Z TN20/0304Z
PROB30
TEMPO 0209/0220 15015G25KT
BECMG 0220/0222 21008KT
TEMPO 0223/0309 OVC010



MET'MAP, your aeronautical weather chart ! - Copyright ORBIFLY December 2007 - Disclaimer

ORBIFLY MET'MAP TEAM :

Programming & Development : Alexandra Zaïnal
Original concept : Baudouin d'Aumeries
Technical & hardware support : Manuel Goepfert
Assistance : Marc-Olivier Méhu




SOURCES & CREDITS :

   NOAA